sensor_id;sensor_type;location;lat;lon;timestamp;temperature;humidity
21459;DHT22;10891;49.350;19.386;2022-12-05T00:02:26;5.60;99.90
21459;DHT22;10891;49.350;19.386;2022-12-05T00:04:52;5.60;99.90
21459;DHT22;10891;49.350;19.386;2022-12-05T00:07:19;5.70;99.90
21459;DHT22;10891;49.350;19.386;2022-12-05T00:09:46;5.70;99.90
21459;DHT22;10891;49.350;19.386;2022-12-05T00:12:14;5.80;99.90
21459;DHT22;10891;49.350;19.386;2022-12-05T00:14:41;5.80;99.90
21459;DHT22;10891;49.350;19.386;2022-12-05T00:17:08;5.80;99.90
21459;DHT22;10891;49.350;19.386;2022-12-05T00:19:35;5.80;99.90
21459;DHT22;10891;49.350;19.386;2022-12-05T00:22:02;5.90;99.90
21459;DHT22;10891;49.350;19.386;2022-12-05T00:24:29;5.80;99.90
21459;DHT22;10891;49.350;19.386;2022-12-05T00:26:56;5.90;99.90
21459;DHT22;10891;49.350;19.386;2022-12-05T00:29:24;5.90;99.90
21459;DHT22;10891;49.350;19.386;2022-12-05T00:31:51;5.90;99.90
21459;DHT22;10891;49.350;19.386;2022-12-05T00:34:17;5.90;99.90
21459;DHT22;10891;49.350;19.386;2022-12-05T00:36:44;6.00;99.90
21459;DHT22;10891;49.350;19.386;2022-12-05T00:39:12;6.00;99.90
21459;DHT22;10891;49.350;19.386;2022-12-05T00:41:40;6.00;99.90
21459;DHT22;10891;49.350;19.386;2022-12-05T00:44:09;6.00;99.90
21459;DHT22;10891;49.350;19.386;2022-12-05T00:46:38;6.10;99.90
21459;DHT22;10891;49.350;19.386;2022-12-05T00:49:06;6.10;99.90
21459;DHT22;10891;49.350;19.386;2022-12-05T00:51:35;6.10;99.90
21459;DHT22;10891;49.350;19.386;2022-12-05T00:54:05;6.20;99.90
21459;DHT22;10891;49.350;19.386;2022-12-05T00:56:32;6.10;99.90
21459;DHT22;10891;49.350;19.386;2022-12-05T00:59:00;6.20;99.90
21459;DHT22;10891;49.350;19.386;2022-12-05T01:01:30;6.20;99.90
21459;DHT22;10891;49.350;19.386;2022-12-05T01:03:59;6.20;99.90
21459;DHT22;10891;49.350;19.386;2022-12-05T01:06:27;6.20;99.90
21459;DHT22;10891;49.350;19.386;2022-12-05T01:08:55;6.20;99.90
21459;DHT22;10891;49.350;19.386;2022-12-05T01:11:23;6.10;99.90
21459;DHT22;10891;49.350;19.386;2022-12-05T01:13:50;6.10;99.90
21459;DHT22;10891;49.350;19.386;2022-12-05T01:16:19;6.20;99.90
21459;DHT22;10891;49.350;19.386;2022-12-05T01:18:47;6.20;99.90
21459;DHT22;10891;49.350;19.386;2022-12-05T01:21:15;6.10;99.90
21459;DHT22;10891;49.350;19.386;2022-12-05T01:23:42;6.20;99.90
21459;DHT22;10891;49.350;19.386;2022-12-05T01:26:11;6.10;99.90
21459;DHT22;10891;49.350;19.386;2022-12-05T01:28:38;6.20;99.90
21459;DHT22;10891;49.350;19.386;2022-12-05T01:31:07;6.10;99.90
21459;DHT22;10891;49.350;19.386;2022-12-05T01:33:34;6.20;99.90
21459;DHT22;10891;49.350;19.386;2022-12-05T01:36:02;6.20;99.90
21459;DHT22;10891;49.350;19.386;2022-12-05T01:38:31;6.20;99.90
21459;DHT22;10891;49.350;19.386;2022-12-05T01:41:01;6.20;99.90
21459;DHT22;10891;49.350;19.386;2022-12-05T01:43:28;6.20;99.90
21459;DHT22;10891;49.350;19.386;2022-12-05T01:45:56;6.20;99.90
21459;DHT22;10891;49.350;19.386;2022-12-05T01:48:27;6.20;99.90
21459;DHT22;10891;49.350;19.386;2022-12-05T01:50:56;6.20;99.90
21459;DHT22;10891;49.350;19.386;2022-12-05T01:53:24;6.20;99.90
21459;DHT22;10891;49.350;19.386;2022-12-05T01:55:53;6.20;99.90
21459;DHT22;10891;49.350;19.386;2022-12-05T01:58:21;6.10;99.90
21459;DHT22;10891;49.350;19.386;2022-12-05T02:00:50;6.10;99.90
21459;DHT22;10891;49.350;19.386;2022-12-05T02:03:18;6.10;99.90
21459;DHT22;10891;49.350;19.386;2022-12-05T02:05:47;6.10;99.90
21459;DHT22;10891;49.350;19.386;2022-12-05T02:08:15;6.10;99.90
21459;DHT22;10891;49.350;19.386;2022-12-05T02:10:45;6.10;99.90
21459;DHT22;10891;49.350;19.386;2022-12-05T02:13:27;6.10;99.90
21459;DHT22;10891;49.350;19.386;2022-12-05T02:16:01;6.00;99.90
21459;DHT22;10891;49.350;19.386;2022-12-05T02:18:41;6.10;99.90
21459;DHT22;10891;49.350;19.386;2022-12-05T02:21:54;6.00;99.90
21459;DHT22;10891;49.350;19.386;2022-12-05T02:24:52;5.90;99.90
21459;DHT22;10891;49.350;19.386;2022-12-05T02:30:16;6.00;99.90
21459;DHT22;10891;49.350;19.386;2022-12-05T02:32:58;6.00;99.90
21459;DHT22;10891;49.350;19.386;2022-12-05T02:35:36;6.10;99.90
21459;DHT22;10891;49.350;19.386;2022-12-05T02:38:15;6.10;99.90
21459;DHT22;10891;49.350;19.386;2022-12-05T02:40:48;6.10;99.90
21459;DHT22;10891;49.350;19.386;2022-12-05T02:43:18;6.10;99.90
21459;DHT22;10891;49.350;19.386;2022-12-05T02:45:52;6.10;99.90
21459;DHT22;10891;49.350;19.386;2022-12-05T02:48:21;6.00;99.90
21459;DHT22;10891;49.350;19.386;2022-12-05T02:50:49;6.10;99.90
21459;DHT22;10891;49.350;19.386;2022-12-05T02:53:20;6.00;99.90
21459;DHT22;10891;49.350;19.386;2022-12-05T02:55:47;6.00;99.90
21459;DHT22;10891;49.350;19.386;2022-12-05T02:58:18;6.10;99.90
21459;DHT22;10891;49.350;19.386;2022-12-05T03:00:52;6.10;99.90
21459;DHT22;10891;49.350;19.386;2022-12-05T03:03:20;6.10;99.90
21459;DHT22;10891;49.350;19.386;2022-12-05T03:05:50;6.10;99.90
21459;DHT22;10891;49.350;19.386;2022-12-05T03:08:22;6.10;99.90
21459;DHT22;10891;49.350;19.386;2022-12-05T03:10:50;6.00;99.90
21459;DHT22;10891;49.350;19.386;2022-12-05T03:13:23;6.00;99.90
21459;DHT22;10891;49.350;19.386;2022-12-05T03:15:56;6.00;99.90
21459;DHT22;10891;49.350;19.386;2022-12-05T03:18:28;6.00;99.90
21459;DHT22;10891;49.350;19.386;2022-12-05T03:20:59;5.90;99.90
21459;DHT22;10891;49.350;19.386;2022-12-05T03:23:30;5.90;99.90
21459;DHT22;10891;49.350;19.386;2022-12-05T03:26:04;5.90;99.90
21459;DHT22;10891;49.350;19.386;2022-12-05T03:28:47;5.80;99.90
21459;DHT22;10891;49.350;19.386;2022-12-05T03:31:21;5.80;99.90
21459;DHT22;10891;49.350;19.386;2022-12-05T03:33:53;5.80;99.90
21459;DHT22;10891;49.350;19.386;2022-12-05T03:36:27;5.90;99.90
21459;DHT22;10891;49.350;19.386;2022-12-05T03:38:59;6.00;99.90
21459;DHT22;10891;49.350;19.386;2022-12-05T03:41:33;6.00;99.90
21459;DHT22;10891;49.350;19.386;2022-12-05T03:44:10;6.10;99.90
21459;DHT22;10891;49.350;19.386;2022-12-05T03:46:43;6.10;99.90
21459;DHT22;10891;49.350;19.386;2022-12-05T03:49:17;6.10;99.90
21459;DHT22;10891;49.350;19.386;2022-12-05T03:51:52;6.10;99.90
21459;DHT22;10891;49.350;19.386;2022-12-05T03:54:23;6.20;99.90
21459;DHT22;10891;49.350;19.386;2022-12-05T03:56:55;6.10;99.90
21459;DHT22;10891;49.350;19.386;2022-12-05T03:59:29;6.20;99.90
21459;DHT22;10891;49.350;19.386;2022-12-05T04:02:03;6.20;99.90
21459;DHT22;10891;49.350;19.386;2022-12-05T04:04:33;6.10;99.90
21459;DHT22;10891;49.350;19.386;2022-12-05T04:07:04;6.10;99.90
21459;DHT22;10891;49.350;19.386;2022-12-05T04:09:38;6.10;99.90
21459;DHT22;10891;49.350;19.386;2022-12-05T04:12:09;6.10;99.90
21459;DHT22;10891;49.350;19.386;2022-12-05T04:14:41;6.00;99.90
21459;DHT22;10891;49.350;19.386;2022-12-05T04:17:16;6.00;99.90
21459;DHT22;10891;49.350;19.386;2022-12-05T04:19:46;6.00;99.90
21459;DHT22;10891;49.350;19.386;2022-12-05T04:22:32;5.90;99.90
21459;DHT22;10891;49.350;19.386;2022-12-05T04:25:02;5.80;99.90
21459;DHT22;10891;49.350;19.386;2022-12-05T04:27:52;5.80;99.90
21459;DHT22;10891;49.350;19.386;2022-12-05T04:30:21;5.80;99.90
21459;DHT22;10891;49.350;19.386;2022-12-05T04:32:56;5.80;99.90
21459;DHT22;10891;49.350;19.386;2022-12-05T04:35:29;5.80;99.90
21459;DHT22;10891;49.350;19.386;2022-12-05T04:38:01;5.90;99.90
21459;DHT22;10891;49.350;19.386;2022-12-05T04:40:33;5.90;99.90
21459;DHT22;10891;49.350;19.386;2022-12-05T04:43:02;5.90;99.90
21459;DHT22;10891;49.350;19.386;2022-12-05T04:45:31;6.00;99.90
21459;DHT22;10891;49.350;19.386;2022-12-05T04:48:06;6.00;99.90
21459;DHT22;10891;49.350;19.386;2022-12-05T04:50:37;6.00;99.90
21459;DHT22;10891;49.350;19.386;2022-12-05T04:53:05;6.00;99.90
21459;DHT22;10891;49.350;19.386;2022-12-05T04:55:35;6.00;99.90
21459;DHT22;10891;49.350;19.386;2022-12-05T04:58:07;5.90;99.90
21459;DHT22;10891;49.350;19.386;2022-12-05T05:00:39;6.00;99.90
21459;DHT22;10891;49.350;19.386;2022-12-05T05:03:15;6.00;99.90
21459;DHT22;10891;49.350;19.386;2022-12-05T05:05:44;6.10;99.90
21459;DHT22;10891;49.350;19.386;2022-12-05T05:08:16;6.10;99.90
21459;DHT22;10891;49.350;19.386;2022-12-05T05:10:51;6.20;99.90
21459;DHT22;10891;49.350;19.386;2022-12-05T05:13:20;6.20;99.90
21459;DHT22;10891;49.350;19.386;2022-12-05T05:15:47;6.20;99.90
21459;DHT22;10891;49.350;19.386;2022-12-05T05:18:15;6.20;99.90
21459;DHT22;10891;49.350;19.386;2022-12-05T05:20:42;6.20;99.90
21459;DHT22;10891;49.350;19.386;2022-12-05T05:23:09;6.20;99.90
21459;DHT22;10891;49.350;19.386;2022-12-05T05:25:36;6.20;99.90
21459;DHT22;10891;49.350;19.386;2022-12-05T05:28:03;6.30;99.90
21459;DHT22;10891;49.350;19.386;2022-12-05T05:30:30;6.30;99.90
21459;DHT22;10891;49.350;19.386;2022-12-05T05:32:58;6.30;99.90
21459;DHT22;10891;49.350;19.386;2022-12-05T05:35:27;6.30;99.90
21459;DHT22;10891;49.350;19.386;2022-12-05T05:37:54;6.30;99.90
21459;DHT22;10891;49.350;19.386;2022-12-05T05:40:20;6.30;99.90
21459;DHT22;10891;49.350;19.386;2022-12-05T05:42:48;6.30;99.90
21459;DHT22;10891;49.350;19.386;2022-12-05T05:45:16;6.20;99.90
21459;DHT22;10891;49.350;19.386;2022-12-05T05:47:43;6.20;99.90
21459;DHT22;10891;49.350;19.386;2022-12-05T05:50:11;6.20;99.90
21459;DHT22;10891;49.350;19.386;2022-12-05T05:52:39;6.20;99.90
21459;DHT22;10891;49.350;19.386;2022-12-05T05:55:07;6.20;99.90
21459;DHT22;10891;49.350;19.386;2022-12-05T05:57:35;6.00;99.90
21459;DHT22;10891;49.350;19.386;2022-12-05T06:00:04;6.00;99.90
21459;DHT22;10891;49.350;19.386;2022-12-05T06:02:32;5.90;99.90
21459;DHT22;10891;49.350;19.386;2022-12-05T06:04:59;5.90;99.90
21459;DHT22;10891;49.350;19.386;2022-12-05T06:07:26;5.80;99.90
21459;DHT22;10891;49.350;19.386;2022-12-05T06:09:54;5.80;99.90
21459;DHT22;10891;49.350;19.386;2022-12-05T06:12:21;5.80;99.90
21459;DHT22;10891;49.350;19.386;2022-12-05T06:14:49;5.80;99.90
21459;DHT22;10891;49.350;19.386;2022-12-05T06:17:16;5.80;99.90
21459;DHT22;10891;49.350;19.386;2022-12-05T06:19:42;5.80;99.90
21459;DHT22;10891;49.350;19.386;2022-12-05T06:22:09;5.90;99.90
21459;DHT22;10891;49.350;19.386;2022-12-05T06:24:36;5.80;99.90
21459;DHT22;10891;49.350;19.386;2022-12-05T06:27:05;5.80;99.90
21459;DHT22;10891;49.350;19.386;2022-12-05T06:29:34;5.90;99.90
21459;DHT22;10891;49.350;19.386;2022-12-05T06:32:01;5.90;99.90
21459;DHT22;10891;49.350;19.386;2022-12-05T06:34:28;6.00;99.90
21459;DHT22;10891;49.350;19.386;2022-12-05T06:36:57;6.10;99.90
21459;DHT22;10891;49.350;19.386;2022-12-05T06:39:25;6.20;99.90
21459;DHT22;10891;49.350;19.386;2022-12-05T06:41:52;6.30;99.90
21459;DHT22;10891;49.350;19.386;2022-12-05T06:44:20;6.30;99.90
21459;DHT22;10891;49.350;19.386;2022-12-05T06:46:49;6.30;99.90
21459;DHT22;10891;49.350;19.386;2022-12-05T06:49:17;6.30;99.90
21459;DHT22;10891;49.350;19.386;2022-12-05T06:51:44;6.30;99.90
21459;DHT22;10891;49.350;19.386;2022-12-05T06:54:11;6.30;99.90
21459;DHT22;10891;49.350;19.386;2022-12-05T06:56:39;6.30;99.90
21459;DHT22;10891;49.350;19.386;2022-12-05T06:59:06;6.30;99.90
21459;DHT22;10891;49.350;19.386;2022-12-05T07:01:34;6.30;99.90
21459;DHT22;10891;49.350;19.386;2022-12-05T07:04:10;6.30;99.90
21459;DHT22;10891;49.350;19.386;2022-12-05T07:06:39;6.30;99.90
21459;DHT22;10891;49.350;19.386;2022-12-05T07:09:05;6.30;99.90
21459;DHT22;10891;49.350;19.386;2022-12-05T07:11:33;6.30;99.90
21459;DHT22;10891;49.350;19.386;2022-12-05T07:14:00;6.20;99.90
21459;DHT22;10891;49.350;19.386;2022-12-05T07:16:27;6.30;99.90
21459;DHT22;10891;49.350;19.386;2022-12-05T07:18:55;6.30;99.90
21459;DHT22;10891;49.350;19.386;2022-12-05T07:21:23;6.30;99.90
21459;DHT22;10891;49.350;19.386;2022-12-05T07:23:50;6.30;99.90
21459;DHT22;10891;49.350;19.386;2022-12-05T07:26:18;6.20;99.90
21459;DHT22;10891;49.350;19.386;2022-12-05T07:28:46;6.20;99.90
21459;DHT22;10891;49.350;19.386;2022-12-05T07:31:17;6.10;99.90
21459;DHT22;10891;49.350;19.386;2022-12-05T07:33:45;6.20;99.90
21459;DHT22;10891;49.350;19.386;2022-12-05T07:36:18;6.30;99.90
21459;DHT22;10891;49.350;19.386;2022-12-05T07:38:45;6.40;99.90
21459;DHT22;10891;49.350;19.386;2022-12-05T07:41:16;6.60;99.90
21459;DHT22;10891;49.350;19.386;2022-12-05T07:46:30;6.80;99.90
21459;DHT22;10891;49.350;19.386;2022-12-05T07:48:57;6.80;99.90
21459;DHT22;10891;49.350;19.386;2022-12-05T07:51:29;6.90;99.90
21459;DHT22;10891;49.350;19.386;2022-12-05T07:54:02;6.90;99.90
21459;DHT22;10891;49.350;19.386;2022-12-05T07:56:32;7.00;99.90
21459;DHT22;10891;49.350;19.386;2022-12-05T07:59:00;7.10;99.90
21459;DHT22;10891;49.350;19.386;2022-12-05T08:01:29;7.10;99.90
21459;DHT22;10891;49.350;19.386;2022-12-05T08:03:57;7.20;99.90
21459;DHT22;10891;49.350;19.386;2022-12-05T08:06:32;7.30;99.90
21459;DHT22;10891;49.350;19.386;2022-12-05T08:09:00;7.40;99.90
21459;DHT22;10891;49.350;19.386;2022-12-05T08:11:29;7.50;99.90
21459;DHT22;10891;49.350;19.386;2022-12-05T08:13:57;7.60;99.90
21459;DHT22;10891;49.350;19.386;2022-12-05T08:16:27;7.60;99.90
21459;DHT22;10891;49.350;19.386;2022-12-05T08:18:58;7.70;99.90
21459;DHT22;10891;49.350;19.386;2022-12-05T08:21:28;7.70;99.90
21459;DHT22;10891;49.350;19.386;2022-12-05T08:23:56;7.80;99.90
21459;DHT22;10891;49.350;19.386;2022-12-05T08:26:28;7.90;99.90
21459;DHT22;10891;49.350;19.386;2022-12-05T08:28:58;7.70;99.90
21459;DHT22;10891;49.350;19.386;2022-12-05T08:31:26;7.80;99.90
21459;DHT22;10891;49.350;19.386;2022-12-05T08:33:56;7.70;99.90
21459;DHT22;10891;49.350;19.386;2022-12-05T08:36:23;7.60;99.90
21459;DHT22;10891;49.350;19.386;2022-12-05T08:38:55;7.60;99.90
21459;DHT22;10891;49.350;19.386;2022-12-05T08:41:22;7.70;99.90
21459;DHT22;10891;49.350;19.386;2022-12-05T08:43:55;7.80;99.90
21459;DHT22;10891;49.350;19.386;2022-12-05T08:46:22;7.90;99.90
21459;DHT22;10891;49.350;19.386;2022-12-05T08:48:49;8.10;99.90
21459;DHT22;10891;49.350;19.386;2022-12-05T08:51:16;8.20;99.90
21459;DHT22;10891;49.350;19.386;2022-12-05T08:53:43;8.30;99.90
21459;DHT22;10891;49.350;19.386;2022-12-05T08:56:12;8.40;99.90
21459;DHT22;10891;49.350;19.386;2022-12-05T08:58:40;8.40;99.90
21459;DHT22;10891;49.350;19.386;2022-12-05T09:01:08;8.40;99.90
21459;DHT22;10891;49.350;19.386;2022-12-05T09:03:36;8.40;99.90
21459;DHT22;10891;49.350;19.386;2022-12-05T09:06:05;8.50;99.90
21459;DHT22;10891;49.350;19.386;2022-12-05T09:08:32;8.50;99.90
21459;DHT22;10891;49.350;19.386;2022-12-05T09:11:03;8.50;99.90
21459;DHT22;10891;49.350;19.386;2022-12-05T09:13:31;8.50;99.90
21459;DHT22;10891;49.350;19.386;2022-12-05T09:15:58;8.50;99.90
21459;DHT22;10891;49.350;19.386;2022-12-05T09:18:24;8.30;99.90
21459;DHT22;10891;49.350;19.386;2022-12-05T09:20:51;8.30;99.90
21459;DHT22;10891;49.350;19.386;2022-12-05T09:23:18;8.20;99.90
21459;DHT22;10891;49.350;19.386;2022-12-05T09:25:52;8.20;99.90
21459;DHT22;10891;49.350;19.386;2022-12-05T09:28:20;8.10;99.90
21459;DHT22;10891;49.350;19.386;2022-12-05T09:30:56;8.10;99.90
21459;DHT22;10891;49.350;19.386;2022-12-05T09:33:23;8.00;99.90
21459;DHT22;10891;49.350;19.386;2022-12-05T09:35:50;8.10;99.90
21459;DHT22;10891;49.350;19.386;2022-12-05T09:38:17;8.20;99.90
21459;DHT22;10891;49.350;19.386;2022-12-05T09:40:44;8.30;99.90
21459;DHT22;10891;49.350;19.386;2022-12-05T09:43:20;8.30;99.90
21459;DHT22;10891;49.350;19.386;2022-12-05T09:45:53;8.40;99.90
21459;DHT22;10891;49.350;19.386;2022-12-05T09:48:24;8.70;99.90
21459;DHT22;10891;49.350;19.386;2022-12-05T09:50:54;9.00;99.90
21459;DHT22;10891;49.350;19.386;2022-12-05T09:53:26;9.40;99.90
21459;DHT22;10891;49.350;19.386;2022-12-05T09:55:59;9.50;99.90
21459;DHT22;10891;49.350;19.386;2022-12-05T09:58:37;9.80;99.90
21459;DHT22;10891;49.350;19.386;2022-12-05T10:01:16;10.00;99.90
21459;DHT22;10891;49.350;19.386;2022-12-05T10:04:01;10.00;99.90
21459;DHT22;10891;49.350;19.386;2022-12-05T10:06:34;10.10;99.90
21459;DHT22;10891;49.350;19.386;2022-12-05T10:09:20;10.10;99.90
21459;DHT22;10891;49.350;19.386;2022-12-05T10:11:54;10.00;99.90
21459;DHT22;10891;49.350;19.386;2022-12-05T10:14:32;10.00;99.90
21459;DHT22;10891;49.350;19.386;2022-12-05T10:17:09;10.00;99.90
21459;DHT22;10891;49.350;19.386;2022-12-05T10:19:41;10.10;99.90
21459;DHT22;10891;49.350;19.386;2022-12-05T10:22:12;10.30;99.90
21459;DHT22;10891;49.350;19.386;2022-12-05T10:24:43;10.50;99.90
21459;DHT22;10891;49.350;19.386;2022-12-05T10:27:16;10.40;99.90
21459;DHT22;10891;49.350;19.386;2022-12-05T10:29:48;10.60;99.90
21459;DHT22;10891;49.350;19.386;2022-12-05T10:32:19;10.60;99.90
21459;DHT22;10891;49.350;19.386;2022-12-05T10:34:49;10.50;99.90
21459;DHT22;10891;49.350;19.386;2022-12-05T10:37:19;10.50;99.90
21459;DHT22;10891;49.350;19.386;2022-12-05T10:39:48;10.40;99.90
21459;DHT22;10891;49.350;19.386;2022-12-05T10:42:17;10.50;99.90
21459;DHT22;10891;49.350;19.386;2022-12-05T10:44:47;10.60;99.90
21459;DHT22;10891;49.350;19.386;2022-12-05T10:47:15;10.60;99.90
21459;DHT22;10891;49.350;19.386;2022-12-05T10:49:42;10.60;99.90
21459;DHT22;10891;49.350;19.386;2022-12-05T10:52:11;10.60;99.90
21459;DHT22;10891;49.350;19.386;2022-12-05T10:54:43;10.60;99.90
21459;DHT22;10891;49.350;19.386;2022-12-05T10:57:20;10.60;99.90
21459;DHT22;10891;49.350;19.386;2022-12-05T10:59:48;10.60;99.90
21459;DHT22;10891;49.350;19.386;2022-12-05T11:02:21;10.50;99.90
21459;DHT22;10891;49.350;19.386;2022-12-05T11:04:48;10.40;99.90
21459;DHT22;10891;49.350;19.386;2022-12-05T11:07:27;10.50;99.90
21459;DHT22;10891;49.350;19.386;2022-12-05T11:09:56;10.30;99.90
21459;DHT22;10891;49.350;19.386;2022-12-05T11:12:23;10.40;99.90
21459;DHT22;10891;49.350;19.386;2022-12-05T11:14:55;10.60;99.90
21459;DHT22;10891;49.350;19.386;2022-12-05T11:17:25;10.80;99.90
21459;DHT22;10891;49.350;19.386;2022-12-05T11:19:52;10.80;99.90
21459;DHT22;10891;49.350;19.386;2022-12-05T11:22:19;10.90;99.90
21459;DHT22;10891;49.350;19.386;2022-12-05T11:24:49;10.90;99.90
21459;DHT22;10891;49.350;19.386;2022-12-05T11:27:20;11.00;99.90
21459;DHT22;10891;49.350;19.386;2022-12-05T11:29:57;11.00;99.90
21459;DHT22;10891;49.350;19.386;2022-12-05T11:32:26;11.10;99.90
21459;DHT22;10891;49.350;19.386;2022-12-05T11:35:00;11.40;99.90
21459;DHT22;10891;49.350;19.386;2022-12-05T11:37:34;11.40;99.90
21459;DHT22;10891;49.350;19.386;2022-12-05T11:40:12;11.20;99.90
21459;DHT22;10891;49.350;19.386;2022-12-05T11:42:50;11.30;99.90
21459;DHT22;10891;49.350;19.386;2022-12-05T11:45:34;11.30;99.90
21459;DHT22;10891;49.350;19.386;2022-12-05T11:51:04;11.00;99.90
21459;DHT22;10891;49.350;19.386;2022-12-05T11:53:47;11.10;99.90
21459;DHT22;10891;49.350;19.386;2022-12-05T11:56:30;11.00;99.90
21459;DHT22;10891;49.350;19.386;2022-12-05T11:59:12;10.90;99.90
21459;DHT22;10891;49.350;19.386;2022-12-05T12:01:50;11.00;99.90
21459;DHT22;10891;49.350;19.386;2022-12-05T12:04:39;11.30;99.90
21459;DHT22;10891;49.350;19.386;2022-12-05T12:07:24;11.30;99.90
21459;DHT22;10891;49.350;19.386;2022-12-05T12:10:03;11.30;99.90
21459;DHT22;10891;49.350;19.386;2022-12-05T12:12:42;11.30;99.90
21459;DHT22;10891;49.350;19.386;2022-12-05T12:15:24;11.20;99.90
21459;DHT22;10891;49.350;19.386;2022-12-05T12:18:02;11.00;99.90
21459;DHT22;10891;49.350;19.386;2022-12-05T12:20:42;11.00;99.90
21459;DHT22;10891;49.350;19.386;2022-12-05T12:23:26;10.90;99.90
21459;DHT22;10891;49.350;19.386;2022-12-05T12:26:05;10.70;99.90
21459;DHT22;10891;49.350;19.386;2022-12-05T12:28:39;10.60;99.90
21459;DHT22;10891;49.350;19.386;2022-12-05T12:31:26;10.60;99.90
21459;DHT22;10891;49.350;19.386;2022-12-05T12:34:01;10.50;99.90
21459;DHT22;10891;49.350;19.386;2022-12-05T12:36:35;10.50;99.90
21459;DHT22;10891;49.350;19.386;2022-12-05T12:39:22;10.50;99.90
21459;DHT22;10891;49.350;19.386;2022-12-05T12:42:03;10.50;99.90
21459;DHT22;10891;49.350;19.386;2022-12-05T12:47:51;10.70;99.90
21459;DHT22;10891;49.350;19.386;2022-12-05T12:50:22;10.70;99.90
21459;DHT22;10891;49.350;19.386;2022-12-05T12:53:07;10.50;99.90
21459;DHT22;10891;49.350;19.386;2022-12-05T12:55:52;10.40;99.90
21459;DHT22;10891;49.350;19.386;2022-12-05T12:58:36;10.20;99.90
21459;DHT22;10891;49.350;19.386;2022-12-05T13:01:16;10.10;99.90
21459;DHT22;10891;49.350;19.386;2022-12-05T13:03:51;9.90;99.90
21459;DHT22;10891;49.350;19.386;2022-12-05T13:06:30;9.90;99.90
21459;DHT22;10891;49.350;19.386;2022-12-05T13:09:05;9.80;99.90
21459;DHT22;10891;49.350;19.386;2022-12-05T13:11:39;9.70;99.90
21459;DHT22;10891;49.350;19.386;2022-12-05T13:14:10;9.60;99.90
21459;DHT22;10891;49.350;19.386;2022-12-05T13:16:46;9.50;99.90
21459;DHT22;10891;49.350;19.386;2022-12-05T13:19:25;9.50;99.90
21459;DHT22;10891;49.350;19.386;2022-12-05T13:21:55;9.40;99.90
21459;DHT22;10891;49.350;19.386;2022-12-05T13:24:25;9.30;99.90
21459;DHT22;10891;49.350;19.386;2022-12-05T13:26:53;9.00;99.90
21459;DHT22;10891;49.350;19.386;2022-12-05T13:29:29;8.80;99.90
21459;DHT22;10891;49.350;19.386;2022-12-05T13:31:59;8.60;99.90
21459;DHT22;10891;49.350;19.386;2022-12-05T13:34:42;8.40;99.90
21459;DHT22;10891;49.350;19.386;2022-12-05T13:37:18;8.20;99.90
21459;DHT22;10891;49.350;19.386;2022-12-05T13:40:04;8.10;99.90
21459;DHT22;10891;49.350;19.386;2022-12-05T13:42:59;7.90;99.90
21459;DHT22;10891;49.350;19.386;2022-12-05T13:45:27;7.80;99.90
21459;DHT22;10891;49.350;19.386;2022-12-05T13:48:08;7.80;99.90
21459;DHT22;10891;49.350;19.386;2022-12-05T13:50:44;7.70;99.90
21459;DHT22;10891;49.350;19.386;2022-12-05T13:53:27;7.60;99.90
21459;DHT22;10891;49.350;19.386;2022-12-05T13:55:58;7.60;99.90
21459;DHT22;10891;49.350;19.386;2022-12-05T13:58:43;7.60;99.90
21459;DHT22;10891;49.350;19.386;2022-12-05T14:01:43;7.60;99.90
21459;DHT22;10891;49.350;19.386;2022-12-05T14:04:40;7.60;99.90
21459;DHT22;10891;49.350;19.386;2022-12-05T14:07:10;7.70;99.90
21459;DHT22;10891;49.350;19.386;2022-12-05T14:09:52;7.70;99.90
21459;DHT22;10891;49.350;19.386;2022-12-05T14:12:47;7.80;99.90
21459;DHT22;10891;49.350;19.386;2022-12-05T14:15:39;7.80;99.90
21459;DHT22;10891;49.350;19.386;2022-12-05T14:18:13;7.90;99.90
21459;DHT22;10891;49.350;19.386;2022-12-05T14:20:52;8.00;99.90
21459;DHT22;10891;49.350;19.386;2022-12-05T14:23:41;7.90;99.90
21459;DHT22;10891;49.350;19.386;2022-12-05T14:26:26;8.00;99.90
21459;DHT22;10891;49.350;19.386;2022-12-05T14:29:26;8.00;99.90
21459;DHT22;10891;49.350;19.386;2022-12-05T14:32:03;7.90;99.90
21459;DHT22;10891;49.350;19.386;2022-12-05T14:34:33;7.90;99.90
21459;DHT22;10891;49.350;19.386;2022-12-05T14:37:03;7.80;99.90
21459;DHT22;10891;49.350;19.386;2022-12-05T14:39:37;7.80;99.90
21459;DHT22;10891;49.350;19.386;2022-12-05T14:42:18;7.80;99.90
21459;DHT22;10891;49.350;19.386;2022-12-05T14:44:47;7.80;99.90
21459;DHT22;10891;49.350;19.386;2022-12-05T14:47:20;7.80;99.90
21459;DHT22;10891;49.350;19.386;2022-12-05T14:49:56;7.70;99.90
21459;DHT22;10891;49.350;19.386;2022-12-05T14:52:27;7.70;99.90
21459;DHT22;10891;49.350;19.386;2022-12-05T14:55:00;7.60;99.90
21459;DHT22;10891;49.350;19.386;2022-12-05T14:57:28;7.60;99.90
21459;DHT22;10891;49.350;19.386;2022-12-05T15:00:00;7.60;99.90
21459;DHT22;10891;49.350;19.386;2022-12-05T15:02:32;7.60;99.90
21459;DHT22;10891;49.350;19.386;2022-12-05T15:05:06;7.70;99.90
21459;DHT22;10891;49.350;19.386;2022-12-05T15:07:43;7.70;99.90
21459;DHT22;10891;49.350;19.386;2022-12-05T15:10:16;7.80;99.90
21459;DHT22;10891;49.350;19.386;2022-12-05T15:12:49;7.80;99.90
21459;DHT22;10891;49.350;19.386;2022-12-05T15:15:20;7.80;99.90
21459;DHT22;10891;49.350;19.386;2022-12-05T15:17:55;7.80;99.90
21459;DHT22;10891;49.350;19.386;2022-12-05T15:20:32;7.80;99.90
21459;DHT22;10891;49.350;19.386;2022-12-05T15:23:00;7.90;99.90
21459;DHT22;10891;49.350;19.386;2022-12-05T15:25:30;7.90;99.90
21459;DHT22;10891;49.350;19.386;2022-12-05T15:28:03;7.90;99.90
21459;DHT22;10891;49.350;19.386;2022-12-05T15:30:31;7.90;99.90
21459;DHT22;10891;49.350;19.386;2022-12-05T15:33:00;8.00;99.90
21459;DHT22;10891;49.350;19.386;2022-12-05T15:35:31;8.00;99.90
21459;DHT22;10891;49.350;19.386;2022-12-05T15:37:59;8.00;99.90
21459;DHT22;10891;49.350;19.386;2022-12-05T15:40:34;8.10;99.90
21459;DHT22;10891;49.350;19.386;2022-12-05T15:43:27;8.10;99.90
21459;DHT22;10891;49.350;19.386;2022-12-05T15:46:08;8.20;99.90
21459;DHT22;10891;49.350;19.386;2022-12-05T15:48:35;8.10;99.90
21459;DHT22;10891;49.350;19.386;2022-12-05T15:51:02;8.10;99.90
21459;DHT22;10891;49.350;19.386;2022-12-05T15:53:33;8.10;99.90
21459;DHT22;10891;49.350;19.386;2022-12-05T15:56:04;8.10;99.90
21459;DHT22;10891;49.350;19.386;2022-12-05T15:58:34;8.10;99.90
21459;DHT22;10891;49.350;19.386;2022-12-05T16:01:12;8.00;99.90
21459;DHT22;10891;49.350;19.386;2022-12-05T16:03:45;8.00;99.90
21459;DHT22;10891;49.350;19.386;2022-12-05T16:06:17;8.00;99.90
21459;DHT22;10891;49.350;19.386;2022-12-05T16:08:46;8.00;99.90
21459;DHT22;10891;49.350;19.386;2022-12-05T16:11:16;7.90;99.90